Time;durP1;ratioP1;P1;durP2;ratioP2;P2;SDS_P1;SDS_P2;PMS_P1;PMS_P2;Temp;Humidity;BMP_temperature;BMP_pressure;BME280_temperature;BME280_humidity;BME280_pressure;Samples;Min_cycle;Max_cycle;Signal;HPM_P1;HPM_P2
2021/06/26 00:00:44;;;;;;;112.32;60.30;;;14.50;99.90;;;;;;4178548;28;20049;-75
2021/06/26 00:02:45;;;;;;;113.10;59.58;;;14.50;99.90;;;;;;4178404;28;20040;-76
2021/06/26 00:04:45;;;;;;;112.65;59.90;;;14.50;99.90;;;;;;4177541;28;20101;-78
2021/06/26 00:06:46;;;;;;;116.65;61.72;;;14.40;99.90;;;;;;4178702;28;20518;-77
2021/06/26 00:08:46;;;;;;;118.93;60.63;;;14.40;99.90;;;;;;4178595;28;20058;-77
2021/06/26 00:10:48;;;;;;;119.55;63.80;;;14.40;99.90;;;;;;4170524;28;20111;-77
2021/06/26 00:12:49;;;;;;;115.70;60.42;;;14.40;99.90;;;;;;4166193;28;20032;-76
2021/06/26 00:14:50;;;;;;;119.07;60.60;;;14.30;99.90;;;;;;4177375;28;20064;-76
2021/06/26 00:16:51;;;;;;;119.00;62.17;;;14.40;99.90;;;;;;4178554;28;20055;-76
2021/06/26 00:18:51;;;;;;;126.10;65.25;;;14.40;99.90;;;;;;4176947;28;20056;-76
2021/06/26 00:20:52;;;;;;;131.90;64.40;;;14.50;99.90;;;;;;4174445;28;20086;-76
2021/06/26 00:22:53;;;;;;;131.05;66.57;;;14.50;99.90;;;;;;4172992;28;20041;-75
2021/06/26 00:24:53;;;;;;;132.88;64.35;;;14.60;99.90;;;;;;4176451;28;20025;-76
2021/06/26 00:26:54;;;;;;;116.32;62.65;;;14.60;99.90;;;;;;4179867;28;20048;-76
2021/06/26 00:28:55;;;;;;;117.78;63.10;;;14.60;99.90;;;;;;4177681;28;20029;-76
2021/06/26 00:30:56;;;;;;;138.25;66.90;;;14.70;99.90;;;;;;4178129;28;20044;-76
2021/06/26 00:32:57;;;;;;;141.73;67.25;;;14.60;99.90;;;;;;4178262;28;20119;-76
2021/06/26 00:34:57;;;;;;;133.25;66.53;;;14.60;99.90;;;;;;4179461;28;20049;-75
2021/06/26 00:36:58;;;;;;;134.52;62.90;;;14.60;99.90;;;;;;4179665;28;20033;-75
2021/06/26 00:38:59;;;;;;;122.15;61.47;;;14.60;99.90;;;;;;4179354;28;20028;-75
2021/06/26 00:40:59;;;;;;;128.02;64.32;;;14.60;99.90;;;;;;4179040;28;20083;-75
2021/06/26 00:43:00;;;;;;;126.75;64.18;;;14.60;99.90;;;;;;4177375;28;20043;-75
2021/06/26 00:45:01;;;;;;;133.70;61.03;;;14.60;99.90;;;;;;4180756;28;20040;-75
2021/06/26 00:47:05;;;;;;;136.27;64.63;;;14.60;99.90;;;;;;4182314;28;20094;-76
2021/06/26 00:49:06;;;;;;;133.85;63.67;;;14.50;99.90;;;;;;4182355;28;20033;-80
2021/06/26 00:51:06;;;;;;;134.80;63.00;;;14.50;99.90;;;;;;4181349;28;20518;-76
2021/06/26 00:53:07;;;;;;;133.48;62.55;;;14.40;99.90;;;;;;4181389;28;20373;-76
2021/06/26 00:55:09;;;;;;;130.48;63.00;;;14.40;99.90;;;;;;4180469;28;20411;-76
2021/06/26 00:57:11;;;;;;;143.88;65.82;;;14.30;99.90;;;;;;4180081;28;20039;-77
2021/06/26 00:59:12;;;;;;;137.45;62.72;;;14.30;99.90;;;;;;4180362;28;20029;-77
2021/06/26 01:01:13;;;;;;;134.55;64.43;;;14.20;99.90;;;;;;4173729;28;20597;-77
2021/06/26 01:03:14;;;;;;;135.90;63.70;;;14.20;99.90;;;;;;4174006;28;20033;-77
2021/06/26 01:05:15;;;;;;;134.10;64.45;;;14.10;99.90;;;;;;4181503;28;20110;-77
2021/06/26 01:07:15;;;;;;;134.73;62.08;;;14.10;99.90;;;;;;4181263;28;20078;-77
2021/06/26 01:09:16;;;;;;;123.63;59.53;;;14.00;99.90;;;;;;4179914;28;20502;-77
2021/06/26 01:11:18;;;;;;;130.52;60.58;;;14.00;99.90;;;;;;4181450;28;20029;-77
2021/06/26 01:13:19;;;;;;;136.25;64.82;;;14.00;99.90;;;;;;4172226;28;20032;-76
2021/06/26 01:15:20;;;;;;;137.18;64.63;;;14.00;99.90;;;;;;4175888;28;20060;-76
2021/06/26 01:17:20;;;;;;;140.77;62.30;;;13.90;99.90;;;;;;4181211;28;20028;-77
2021/06/26 01:19:22;;;;;;;129.43;59.33;;;13.90;99.90;;;;;;4179985;28;20041;-76
2021/06/26 01:21:25;;;;;;;135.13;61.38;;;13.80;99.90;;;;;;4179844;28;20492;-76
2021/06/26 01:23:26;;;;;;;129.20;61.45;;;13.80;99.90;;;;;;4181765;28;20036;-77
2021/06/26 01:25:30;;;;;;;118.68;52.97;;;13.70;99.90;;;;;;4182237;28;20460;-76
2021/06/26 01:27:30;;;;;;;107.28;54.65;;;13.70;99.90;;;;;;4180462;28;20099;-77
2021/06/26 01:29:33;;;;;;;117.72;57.67;;;13.60;99.90;;;;;;4174528;28;20041;-77
2021/06/26 01:31:34;;;;;;;132.73;54.85;;;13.60;99.90;;;;;;4178222;28;20032;-76
2021/06/26 01:33:35;;;;;;;124.68;56.63;;;13.50;99.90;;;;;;4178415;28;20045;-77
2021/06/26 01:35:35;;;;;;;118.47;53.17;;;13.50;99.90;;;;;;4174871;28;20029;-76
2021/06/26 01:37:40;;;;;;;129.38;55.30;;;13.40;99.90;;;;;;4170043;28;20041;-77
2021/06/26 01:39:41;;;;;;;130.25;59.35;;;13.40;99.90;;;;;;4179599;28;20033;-77
2021/06/26 01:41:42;;;;;;;121.20;55.60;;;13.40;99.90;;;;;;4179918;28;20065;-77
2021/06/26 01:43:43;;;;;;;148.63;61.63;;;13.40;99.90;;;;;;4180243;28;20107;-77
2021/06/26 01:45:43;;;;;;;145.38;61.30;;;13.40;99.90;;;;;;4179564;28;20033;-77
2021/06/26 01:47:52;;;;;;;137.55;61.03;;;13.40;99.90;;;;;;4181947;28;20517;-76
2021/06/26 01:49:53;;;;;;;152.68;64.20;;;13.40;99.90;;;;;;4181486;28;20112;-77
2021/06/26 01:51:54;;;;;;;159.90;68.22;;;13.50;99.90;;;;;;4180179;28;20658;-78
2021/06/26 01:53:54;;;;;;;155.93;69.43;;;13.50;99.90;;;;;;4180387;28;20079;-75
2021/06/26 01:55:55;;;;;;;152.80;67.13;;;13.60;99.90;;;;;;4181027;28;20035;-75
2021/06/26 01:57:57;;;;;;;171.25;70.40;;;13.60;99.90;;;;;;4181123;28;20026;-76
2021/06/26 01:59:57;;;;;;;159.15;64.75;;;13.60;99.90;;;;;;4180458;28;20029;-76
2021/06/26 02:01:58;;;;;;;149.40;66.65;;;13.60;99.90;;;;;;4180155;28;20055;-76
2021/06/26 02:03:59;;;;;;;149.13;65.07;;;13.60;99.90;;;;;;4181652;28;20021;-76
2021/06/26 02:06:00;;;;;;;158.10;66.25;;;13.50;99.90;;;;;;4178943;28;20369;-75
2021/06/26 02:08:01;;;;;;;158.48;67.57;;;13.50;99.90;;;;;;4180500;28;20091;-76
2021/06/26 02:10:04;;;;;;;139.18;62.90;;;13.50;99.90;;;;;;4179883;28;20021;-76
2021/06/26 02:12:05;;;;;;;157.98;60.78;;;13.50;99.90;;;;;;4181296;28;20033;-75
2021/06/26 02:14:06;;;;;;;149.45;60.05;;;13.50;99.90;;;;;;4174218;28;20040;-76
2021/06/26 02:16:08;;;;;;;152.77;64.40;;;13.50;99.90;;;;;;4164177;28;20057;-78
2021/06/26 02:18:09;;;;;;;161.48;67.30;;;13.50;99.90;;;;;;4172524;28;20072;-76
2021/06/26 02:20:09;;;;;;;154.02;64.55;;;13.50;99.90;;;;;;4180560;28;20032;-76
2021/06/26 02:22:10;;;;;;;142.30;63.38;;;13.50;99.90;;;;;;4178982;28;20037;-76
2021/06/26 02:24:12;;;;;;;155.02;63.95;;;13.60;99.90;;;;;;4181024;28;20077;-75
2021/06/26 02:26:13;;;;;;;148.85;67.15;;;13.60;99.90;;;;;;4176040;28;20036;-76
2021/06/26 02:28:13;;;;;;;154.15;66.53;;;13.60;99.90;;;;;;4179661;28;20021;-76
2021/06/26 02:30:14;;;;;;;138.27;57.80;;;13.60;99.90;;;;;;4163226;28;20200;-76
2021/06/26 02:32:15;;;;;;;155.48;62.35;;;13.60;99.90;;;;;;4180870;28;20033;-75
2021/06/26 02:34:18;;;;;;;161.80;64.95;;;13.60;99.90;;;;;;4179714;28;20397;-76
2021/06/26 02:36:18;;;;;;;141.18;59.17;;;13.50;99.90;;;;;;4181132;28;20108;-76
2021/06/26 02:38:19;;;;;;;151.73;61.15;;;13.60;99.90;;;;;;4179585;28;20047;-75
2021/06/26 02:40:19;;;;;;;151.00;60.35;;;13.50;99.90;;;;;;4180987;28;20121;-75
2021/06/26 02:42:20;;;;;;;132.90;57.10;;;13.60;99.90;;;;;;4180999;28;22655;-75
2021/06/26 02:44:21;;;;;;;144.10;59.40;;;13.60;99.90;;;;;;4181148;28;20045;-75
2021/06/26 02:46:22;;;;;;;128.68;58.58;;;13.60;99.90;;;;;;4181124;28;20025;-75
2021/06/26 02:48:22;;;;;;;136.20;61.15;;;13.70;99.90;;;;;;4180748;28;20385;-76
2021/06/26 02:50:23;;;;;;;157.48;63.75;;;13.70;99.90;;;;;;4179769;28;20171;-75
2021/06/26 02:52:24;;;;;;;143.27;61.80;;;13.80;99.90;;;;;;4179523;28;20071;-76
2021/06/26 02:54:24;;;;;;;155.65;64.57;;;13.80;99.90;;;;;;4180767;28;20490;-75
2021/06/26 02:56:25;;;;;;;133.15;61.80;;;13.90;99.90;;;;;;4180655;28;20094;-76
2021/06/26 02:58:26;;;;;;;145.23;66.15;;;13.90;99.90;;;;;;4180531;28;20068;-77
2021/06/26 03:00:26;;;;;;;155.88;68.10;;;13.90;99.90;;;;;;4180591;28;20123;-77
2021/06/26 03:02:29;;;;;;;166.40;70.88;;;14.00;99.90;;;;;;4179001;28;20040;-77
2021/06/26 03:04:30;;;;;;;163.40;71.38;;;14.10;99.90;;;;;;4179509;28;20029;-76
2021/06/26 03:06:31;;;;;;;156.02;67.10;;;14.10;99.90;;;;;;4180225;28;20040;-77
2021/06/26 03:08:31;;;;;;;183.95;74.93;;;14.10;99.90;;;;;;4178590;28;20037;-76
2021/06/26 03:10:32;;;;;;;165.38;67.35;;;14.20;99.90;;;;;;4178261;28;20057;-76
2021/06/26 03:12:33;;;;;;;161.27;68.15;;;14.20;99.90;;;;;;4178593;28;20029;-76
2021/06/26 03:14:33;;;;;;;164.30;71.40;;;14.20;99.90;;;;;;4179654;28;20033;-76
2021/06/26 03:16:34;;;;;;;153.77;69.38;;;14.20;99.90;;;;;;4178742;28;20025;-77
2021/06/26 03:18:36;;;;;;;161.90;70.90;;;14.20;99.90;;;;;;4178050;28;20044;-76
2021/06/26 03:20:36;;;;;;;149.73;70.50;;;14.20;99.90;;;;;;4180167;28;20396;-76
2021/06/26 03:22:37;;;;;;;161.65;73.00;;;14.20;99.90;;;;;;4179093;28;20037;-77
2021/06/26 03:24:38;;;;;;;161.40;71.95;;;14.20;99.90;;;;;;4179119;28;20036;-76
2021/06/26 03:26:40;;;;;;;164.48;72.63;;;14.20;99.90;;;;;;4179341;28;20041;-76
2021/06/26 03:28:40;;;;;;;157.18;70.70;;;14.20;99.90;;;;;;4179174;28;20116;-75
2021/06/26 03:30:43;;;;;;;141.15;65.45;;;14.20;99.90;;;;;;4178855;28;20435;-76
2021/06/26 03:32:44;;;;;;;146.77;66.60;;;14.20;99.90;;;;;;4180074;28;20179;-76
2021/06/26 03:34:44;;;;;;;143.98;65.70;;;14.30;99.90;;;;;;4180088;28;20127;-76
2021/06/26 03:36:45;;;;;;;166.02;71.82;;;14.30;99.90;;;;;;4179038;28;20033;-76
2021/06/26 03:38:46;;;;;;;158.70;69.63;;;14.40;99.90;;;;;;4180144;28;20029;-77
2021/06/26 03:40:49;;;;;;;151.63;70.80;;;14.40;99.90;;;;;;4178749;28;20123;-76
2021/06/26 03:42:49;;;;;;;156.13;69.72;;;14.40;99.90;;;;;;4179026;28;20055;-76
2021/06/26 03:44:50;;;;;;;151.80;69.25;;;14.40;99.90;;;;;;4178960;28;20037;-76
2021/06/26 03:46:51;;;;;;;146.63;69.32;;;14.40;99.90;;;;;;4179878;28;20349;-76
2021/06/26 03:48:52;;;;;;;146.85;66.78;;;14.50;99.90;;;;;;4178811;28;20040;-76
2021/06/26 03:50:59;;;;;;;145.65;68.47;;;14.50;99.90;;;;;;4178470;28;20503;-77
2021/06/26 03:53:00;;;;;;;142.63;68.55;;;14.50;99.90;;;;;;4178951;28;20745;-76
2021/06/26 03:55:03;;;;;;;137.75;65.72;;;14.60;99.90;;;;;;4179637;28;20451;-77
2021/06/26 03:57:04;;;;;;;144.35;67.07;;;14.60;99.90;;;;;;4178394;28;20027;-77
2021/06/26 03:59:04;;;;;;;126.43;61.67;;;14.60;99.90;;;;;;4178448;28;20115;-77
2021/06/26 04:01:05;;;;;;;133.60;62.70;;;14.70;99.90;;;;;;4178045;28;20055;-76
2021/06/26 04:03:06;;;;;;;122.78;60.42;;;14.70;99.90;;;;;;4178240;28;20435;-77
2021/06/26 04:05:07;;;;;;;132.98;64.65;;;14.80;99.90;;;;;;4180071;28;20032;-76
2021/06/26 04:07:07;;;;;;;110.70;56.40;;;14.80;99.90;;;;;;4178231;28;20158;-76
2021/06/26 04:09:08;;;;;;;130.63;62.53;;;14.80;99.90;;;;;;4179615;28;20041;-77
2021/06/26 04:11:09;;;;;;;109.97;57.03;;;14.80;99.90;;;;;;4178618;28;20028;-76
2021/06/26 04:13:09;;;;;;;122.22;61.08;;;14.80;99.90;;;;;;4178432;28;20021;-76
2021/06/26 04:15:10;;;;;;;106.72;54.47;;;14.90;99.90;;;;;;4167309;28;20444;-76
2021/06/26 04:17:11;;;;;;;113.72;56.10;;;15.00;99.90;;;;;;4178215;28;20040;-75
2021/06/26 04:19:13;;;;;;;123.57;58.13;;;15.10;99.90;;;;;;4179116;28;20082;-76
2021/06/26 04:21:14;;;;;;;109.97;53.72;;;15.20;99.90;;;;;;4178526;28;20078;-76
2021/06/26 04:23:15;;;;;;;113.63;57.53;;;15.20;99.90;;;;;;4180410;28;20419;-77
2021/06/26 04:25:17;;;;;;;106.53;55.55;;;15.30;99.90;;;;;;4179857;28;20114;-76
2021/06/26 04:27:19;;;;;;;108.63;55.92;;;15.40;99.90;;;;;;4179496;28;20060;-76
2021/06/26 04:29:20;;;;;;;93.88;51.08;;;15.40;99.90;;;;;;4179502;28;20081;-76
2021/06/26 04:31:20;;;;;;;91.93;51.00;;;15.40;99.90;;;;;;4178466;28;20131;-77
2021/06/26 04:33:21;;;;;;;92.88;53.00;;;15.50;99.90;;;;;;4178145;28;20033;-77
2021/06/26 04:35:25;;;;;;;100.93;53.80;;;15.50;99.90;;;;;;4179038;28;20025;-77
2021/06/26 04:37:25;;;;;;;98.70;53.67;;;15.60;99.90;;;;;;4178134;28;20047;-78
2021/06/26 04:39:26;;;;;;;87.65;52.03;;;15.70;99.90;;;;;;4179619;28;20484;-77
2021/06/26 04:41:28;;;;;;;92.18;51.30;;;15.70;99.90;;;;;;4179298;28;20036;-77
2021/06/26 04:43:29;;;;;;;79.00;46.83;;;15.70;99.90;;;;;;4179473;28;20048;-78
2021/06/26 04:45:29;;;;;;;77.38;45.97;;;15.80;99.90;;;;;;4179231;28;20484;-76
2021/06/26 04:47:30;;;;;;;85.35;53.22;;;15.80;99.90;;;;;;4179587;28;20029;-77
2021/06/26 04:49:31;;;;;;;80.55;50.38;;;15.90;99.90;;;;;;4179291;28;20453;-77
2021/06/26 04:51:33;;;;;;;70.55;45.22;;;15.80;99.90;;;;;;4179353;28;20119;-77
2021/06/26 04:53:40;;;;;;;80.70;51.65;;;15.90;99.90;;;;;;4172870;28;20029;-77
2021/06/26 04:55:40;;;;;;;75.53;49.47;;;15.80;99.90;;;;;;4179404;28;20029;-77
2021/06/26 04:57:42;;;;;;;76.88;48.95;;;15.80;99.90;;;;;;4179399;28;20094;-77
2021/06/26 04:59:43;;;;;;;73.45;49.38;;;15.80;99.90;;;;;;4178163;28;20119;-76
2021/06/26 05:01:43;;;;;;;71.45;48.53;;;15.80;99.90;;;;;;4177787;28;20033;-76
2021/06/26 05:03:44;;;;;;;73.63;47.33;;;15.80;99.90;;;;;;4177817;28;20438;-77
2021/06/26 05:05:45;;;;;;;67.18;44.38;;;15.90;99.90;;;;;;4179429;28;20068;-77
2021/06/26 05:07:46;;;;;;;65.68;45.83;;;16.00;99.90;;;;;;4177933;28;20080;-77
2021/06/26 05:09:48;;;;;;;66.25;45.15;;;16.10;99.90;;;;;;4179457;28;20029;-77
2021/06/26 05:11:48;;;;;;;58.92;42.00;;;16.20;99.90;;;;;;4177793;28;20033;-77
2021/06/26 05:13:49;;;;;;;55.42;43.22;;;16.30;99.90;;;;;;4176641;28;20111;-77
2021/06/26 05:15:50;;;;;;;56.58;43.38;;;16.40;99.90;;;;;;4161534;28;20122;-76
2021/06/26 05:17:50;;;;;;;60.50;41.97;;;16.50;99.90;;;;;;4161322;28;20037;-77
2021/06/26 05:19:51;;;;;;;55.13;41.08;;;16.60;99.90;;;;;;4170286;28;20113;-77
2021/06/26 05:21:52;;;;;;;54.85;40.85;;;16.60;99.90;;;;;;4165759;28;20465;-77
2021/06/26 05:23:53;;;;;;;56.38;40.83;;;16.60;99.90;;;;;;4166071;28;20018;-77
2021/06/26 05:25:55;;;;;;;57.97;38.67;;;16.70;99.90;;;;;;4170102;28;20039;-76
2021/06/26 05:27:55;;;;;;;48.63;38.22;;;16.70;99.90;;;;;;4169917;28;20518;-76
2021/06/26 05:29:56;;;;;;;47.67;38.10;;;16.80;99.90;;;;;;4167435;28;20057;-77
2021/06/26 05:31:57;;;;;;;45.20;37.08;;;16.80;99.90;;;;;;4164477;28;20034;-75
2021/06/26 05:33:59;;;;;;;45.30;36.85;;;17.00;99.90;;;;;;4189293;28;20610;-77
2021/06/26 05:36:00;;;;;;;42.30;35.20;;;17.10;99.90;;;;;;4167779;28;20033;-76
2021/06/26 05:38:02;;;;;;;44.00;35.95;;;17.20;99.90;;;;;;4168205;28;20362;-76
2021/06/26 05:40:07;;;;;;;42.20;33.87;;;17.30;99.90;;;;;;4170314;28;20108;-76
2021/06/26 05:42:10;;;;;;;44.50;34.03;;;17.30;99.90;;;;;;4179712;28;20079;-77
2021/06/26 05:44:10;;;;;;;41.20;34.70;;;17.40;99.90;;;;;;4168644;28;20116;-76
2021/06/26 05:46:11;;;;;;;44.00;34.38;;;17.50;99.90;;;;;;4164210;28;20356;-76
2021/06/26 05:48:12;;;;;;;36.00;29.05;;;17.60;99.90;;;;;;4188456;28;20391;-77
2021/06/26 05:50:13;;;;;;;38.92;32.90;;;17.60;99.90;;;;;;4173585;28;20480;-76
2021/06/26 05:52:13;;;;;;;41.83;31.80;;;17.60;99.90;;;;;;4169706;28;20108;-76
2021/06/26 05:54:14;;;;;;;40.33;31.73;;;17.70;99.90;;;;;;4171851;28;20039;-77
2021/06/26 05:56:15;;;;;;;41.47;33.78;;;17.80;99.90;;;;;;4156617;28;20428;-77
2021/06/26 05:58:15;;;;;;;39.15;31.48;;;17.90;99.90;;;;;;4162778;28;20087;-75
2021/06/26 06:00:18;;;;;;;39.22;30.50;;;18.00;99.90;;;;;;4190185;28;20029;-77
2021/06/26 06:02:19;;;;;;;37.72;29.08;;;18.00;99.90;;;;;;4172810;28;20435;-75
2021/06/26 06:04:20;;;;;;;36.75;29.77;;;18.10;99.90;;;;;;4191067;28;20032;-76
2021/06/26 06:06:20;;;;;;;35.55;29.42;;;18.30;99.90;;;;;;4171832;28;20029;-77
2021/06/26 06:08:21;;;;;;;35.63;28.50;;;18.40;99.90;;;;;;4172963;28;20385;-77
2021/06/26 06:10:25;;;;;;;31.73;26.95;;;18.50;99.90;;;;;;4172744;28;20028;-77
2021/06/26 06:12:27;;;;;;;31.55;26.80;;;18.60;99.90;;;;;;4171997;28;20033;-78
2021/06/26 06:14:28;;;;;;;34.47;26.08;;;18.70;99.90;;;;;;4172995;28;20064;-77
2021/06/26 06:16:29;;;;;;;28.70;24.80;;;18.90;99.90;;;;;;4171229;28;20116;-77
2021/06/26 06:18:29;;;;;;;32.95;26.38;;;18.90;99.90;;;;;;4173680;28;20415;-76
2021/06/26 06:20:30;;;;;;;28.27;23.88;;;18.80;99.90;;;;;;4170482;28;20040;-77
2021/06/26 06:22:32;;;;;;;29.55;25.98;;;18.80;99.90;;;;;;4168117;28;20472;-77
2021/06/26 06:24:32;;;;;;;31.42;25.70;;;18.80;99.90;;;;;;4167569;28;20032;-77
2021/06/26 06:26:33;;;;;;;29.05;25.42;;;18.80;99.90;;;;;;4171850;28;20133;-75
2021/06/26 06:28:35;;;;;;;28.80;25.17;;;18.80;99.90;;;;;;4173470;28;20037;-76
2021/06/26 06:30:36;;;;;;;28.40;25.42;;;18.70;99.90;;;;;;4172420;28;20040;-76
2021/06/26 06:32:38;;;;;;;27.90;24.65;;;18.70;99.90;;;;;;4172667;28;20022;-76
2021/06/26 06:34:38;;;;;;;30.48;26.38;;;18.90;99.90;;;;;;4176195;28;20040;-77
2021/06/26 06:36:39;;;;;;;28.77;25.65;;;18.90;99.90;;;;;;4171873;28;20052;-76
2021/06/26 06:38:40;;;;;;;32.03;26.17;;;18.90;99.90;;;;;;4178954;28;20033;-76
2021/06/26 06:40:41;;;;;;;29.27;24.92;;;19.00;99.90;;;;;;4171845;28;20037;-76
2021/06/26 06:42:42;;;;;;;28.00;24.65;;;19.00;99.90;;;;;;4156631;28;20033;-76
2021/06/26 06:44:43;;;;;;;26.15;23.33;;;19.20;99.90;;;;;;4168063;28;20025;-77
2021/06/26 06:46:43;;;;;;;35.17;26.77;;;19.20;99.90;;;;;;4166766;28;20033;-77
2021/06/26 06:48:44;;;;;;;28.27;23.88;;;19.10;99.90;;;;;;4175864;28;20116;-77
2021/06/26 06:50:44;;;;;;;26.63;23.15;;;19.10;99.90;;;;;;4171712;28;20047;-77
2021/06/26 06:52:45;;;;;;;29.10;25.88;;;19.20;99.90;;;;;;4180832;28;20041;-76
2021/06/26 06:54:46;;;;;;;26.05;22.75;;;19.20;99.90;;;;;;4179499;28;20037;-79
2021/06/26 06:56:46;;;;;;;25.15;22.45;;;19.30;99.90;;;;;;4180505;28;20043;-77
2021/06/26 06:58:52;;;;;;;26.90;23.98;;;19.40;99.90;;;;;;4180939;28;20025;-77
2021/06/26 07:00:53;;;;;;;26.00;22.60;;;19.60;99.90;;;;;;4179679;28;20048;-77
2021/06/26 07:02:53;;;;;;;24.38;21.63;;;19.60;99.90;;;;;;4179285;28;20037;-77
2021/06/26 07:04:54;;;;;;;26.17;23.10;;;19.80;99.90;;;;;;4162650;28;20034;-77
2021/06/26 07:06:55;;;;;;;25.58;22.48;;;20.00;99.90;;;;;;4177082;28;20067;-76
2021/06/26 07:08:55;;;;;;;25.10;22.50;;;20.00;99.90;;;;;;4179056;28;20052;-76
2021/06/26 07:10:56;;;;;;;22.92;20.30;;;20.10;99.90;;;;;;4180286;28;20025;-76
2021/06/26 07:12:57;;;;;;;24.05;21.20;;;20.10;99.90;;;;;;4180205;28;20426;-76
2021/06/26 07:14:58;;;;;;;23.50;21.10;;;20.20;99.90;;;;;;4180417;28;20025;-76
2021/06/26 07:16:58;;;;;;;23.42;21.08;;;20.30;99.90;;;;;;4180856;28;20361;-76
2021/06/26 07:18:59;;;;;;;23.48;19.77;;;20.70;99.90;;;;;;4180175;28;20396;-75
2021/06/26 07:20:59;;;;;;;21.25;18.95;;;21.00;99.90;;;;;;4180194;28;20587;-76
2021/06/26 07:23:00;;;;;;;19.55;17.60;;;21.10;99.90;;;;;;4178760;28;20151;-77
2021/06/26 07:25:01;;;;;;;20.40;18.35;;;21.20;99.90;;;;;;4178812;28;20029;-76
2021/06/26 07:27:02;;;;;;;22.17;19.83;;;21.20;99.90;;;;;;4180439;28;20029;-76
2021/06/26 07:29:05;;;;;;;18.77;16.88;;;21.10;99.90;;;;;;4179870;28;20053;-77
2021/06/26 07:31:06;;;;;;;20.67;16.73;;;21.00;99.90;;;;;;4178315;28;20071;-78
2021/06/26 07:33:06;;;;;;;19.88;18.00;;;21.10;99.90;;;;;;4179844;28;20037;-78
2021/06/26 07:35:08;;;;;;;19.88;17.80;;;21.00;99.90;;;;;;4178924;28;20041;-75
2021/06/26 07:37:09;;;;;;;18.35;16.50;;;20.80;99.90;;;;;;4180101;28;20024;-74
2021/06/26 07:39:09;;;;;;;19.73;16.85;;;20.80;99.90;;;;;;4179932;28;20025;-77
2021/06/26 07:41:10;;;;;;;19.10;17.23;;;20.70;99.90;;;;;;4166771;28;20530;-77
2021/06/26 07:43:11;;;;;;;19.20;17.02;;;20.50;99.90;;;;;;4178432;28;20033;-77
2021/06/26 07:45:12;;;;;;;19.40;16.30;;;20.60;99.90;;;;;;4174683;28;20025;-76
2021/06/26 07:47:13;;;;;;;17.02;15.32;;;20.80;99.90;;;;;;4175523;28;20086;-77
2021/06/26 07:49:13;;;;;;;17.67;15.43;;;20.80;99.90;;;;;;4175902;28;20025;-77
2021/06/26 07:51:14;;;;;;;18.70;16.65;;;20.90;99.90;;;;;;4175334;28;20043;-77
2021/06/26 07:53:15;;;;;;;18.35;16.52;;;21.00;99.90;;;;;;4167660;28;20393;-77
2021/06/26 07:55:17;;;;;;;17.27;15.18;;;21.10;99.90;;;;;;4168281;28;20025;-77
2021/06/26 07:57:18;;;;;;;16.65;14.98;;;21.20;99.90;;;;;;4179494;28;20025;-77
2021/06/26 07:59:18;;;;;;;18.98;16.52;;;21.30;99.90;;;;;;4179713;28;20039;-77
2021/06/26 08:01:19;;;;;;;18.45;16.65;;;21.40;99.90;;;;;;4179405;28;20118;-77
2021/06/26 08:03:20;;;;;;;20.38;18.10;;;21.40;99.90;;;;;;4179433;28;20048;-76
2021/06/26 08:05:21;;;;;;;17.25;15.27;;;21.40;99.90;;;;;;4166466;28;20045;-77
2021/06/26 08:07:22;;;;;;;17.63;15.88;;;21.60;99.90;;;;;;4164116;28;20029;-77
2021/06/26 08:09:22;;;;;;;18.33;16.52;;;21.80;99.90;;;;;;4170033;28;20025;-76
2021/06/26 08:11:23;;;;;;;20.88;18.70;;;22.00;99.90;;;;;;4184361;28;20119;-76
2021/06/26 08:13:25;;;;;;;17.92;16.00;;;22.10;99.90;;;;;;4184381;28;20495;-76
2021/06/26 08:15:25;;;;;;;20.58;18.45;;;22.20;99.90;;;;;;4178280;28;20052;-77
2021/06/26 08:17:26;;;;;;;21.27;17.88;;;22.40;99.90;;;;;;4177422;28;20466;-75
2021/06/26 08:19:27;;;;;;;20.52;18.38;;;22.40;99.90;;;;;;4177861;28;20519;-76
2021/06/26 08:21:30;;;;;;;19.67;17.58;;;22.30;99.90;;;;;;4178037;28;20032;-76
2021/06/26 08:23:31;;;;;;;19.35;17.42;;;22.30;99.90;;;;;;4179641;28;20048;-77
2021/06/26 08:25:32;;;;;;;19.60;17.70;;;22.30;99.90;;;;;;4178361;28;20037;-76
2021/06/26 08:27:33;;;;;;;21.08;18.77;;;22.40;99.90;;;;;;4179374;28;20031;-76
2021/06/26 08:29:34;;;;;;;18.60;16.45;;;22.50;99.90;;;;;;4178099;28;20419;-76
2021/06/26 08:31:35;;;;;;;19.67;17.80;;;22.70;99.90;;;;;;4166417;28;20029;-75
2021/06/26 08:33:35;;;;;;;21.88;18.70;;;22.70;99.90;;;;;;4178118;28;20116;-77
2021/06/26 08:35:36;;;;;;;23.23;20.65;;;22.70;99.90;;;;;;4178466;28;20124;-76
2021/06/26 08:37:39;;;;;;;22.52;19.80;;;22.80;99.90;;;;;;4178498;28;20104;-76
2021/06/26 08:39:40;;;;;;;26.23;21.63;;;22.80;99.90;;;;;;4177201;28;20111;-77
2021/06/26 08:41:45;;;;;;;22.48;19.88;;;22.80;99.90;;;;;;4179283;28;20029;-76
2021/06/26 08:43:45;;;;;;;21.52;19.30;;;23.00;99.90;;;;;;4174933;28;20044;-76
2021/06/26 08:45:47;;;;;;;24.83;20.17;;;23.20;99.90;;;;;;4170706;28;20095;-76
2021/06/26 08:47:53;;;;;;;19.45;17.45;;;23.30;99.90;;;;;;4172451;28;20064;-76
2021/06/26 08:49:54;;;;;;;20.70;18.70;;;23.60;99.90;;;;;;4178904;28;20050;-76
2021/06/26 08:51:55;;;;;;;26.58;21.20;;;23.90;99.90;;;;;;4177375;28;20025;-76
2021/06/26 08:53:56;;;;;;;23.25;20.95;;;24.10;99.90;;;;;;4177903;28;20028;-76
2021/06/26 08:55:57;;;;;;;20.27;18.25;;;24.20;99.90;;;;;;4177434;28;20036;-76
2021/06/26 08:58:01;;;;;;;18.70;15.65;;;24.30;99.90;;;;;;4177696;28;20476;-77
2021/06/26 09:00:06;;;;;;;19.73;17.63;;;24.40;99.90;;;;;;4177920;28;20139;-77
2021/06/26 09:02:21;;;;;;;19.92;17.80;;;24.40;99.90;;;;;;4177977;28;20219;-76
2021/06/26 09:04:23;;;;;;;20.60;18.40;;;24.50;99.90;;;;;;4178084;28;20025;-78
2021/06/26 09:06:25;;;;;;;21.23;19.05;;;24.50;99.90;;;;;;4178874;28;20056;-78
2021/06/26 09:08:26;;;;;;;22.80;20.50;;;24.30;99.90;;;;;;4177789;28;20603;-78
2021/06/26 09:10:26;;;;;;;22.23;19.90;;;23.80;99.90;;;;;;4170590;28;20045;-78
2021/06/26 09:12:27;;;;;;;23.15;19.52;;;23.50;99.90;;;;;;4169192;28;20032;-76
2021/06/26 09:14:28;;;;;;;20.73;18.73;;;23.20;99.90;;;;;;4182428;28;20115;-77
2021/06/26 09:16:32;;;;;;;21.52;18.30;;;23.00;99.90;;;;;;4181082;28;20029;-77
2021/06/26 09:18:43;;;;;;;21.77;16.75;;;23.20;99.90;;;;;;4183774;28;20063;-76
2021/06/26 09:20:53;;;;;;;22.25;19.95;;;23.50;99.90;;;;;;4178405;28;20025;-77
2021/06/26 09:22:55;;;;;;;19.45;17.45;;;23.70;99.90;;;;;;4177282;28;20381;-76
2021/06/26 09:24:57;;;;;;;19.83;17.77;;;23.80;99.90;;;;;;4171440;28;20361;-77
2021/06/26 09:26:59;;;;;;;22.55;20.17;;;24.20;99.90;;;;;;4179547;28;20033;-76
2021/06/26 09:29:17;;;;;;;21.20;19.17;;;24.40;99.90;;;;;;4180421;28;20032;-77
2021/06/26 09:31:20;;;;;;;20.05;17.52;;;24.50;99.90;;;;;;4180088;28;20075;-75
2021/06/26 09:33:26;;;;;;;20.17;18.23;;;24.70;99.90;;;;;;4179334;28;20411;-75
2021/06/26 09:35:26;;;;;;;21.42;18.33;;;24.90;99.90;;;;;;4164485;28;20099;-75
2021/06/26 09:37:33;;;;;;;25.20;18.83;;;25.00;99.90;;;;;;4166334;28;20037;-76
2021/06/26 09:39:42;;;;;;;18.88;16.98;;;25.00;99.90;;;;;;4167572;28;20037;-75
2021/06/26 09:41:49;;;;;;;20.55;16.58;;;25.10;99.90;;;;;;4174219;28;20078;-76
2021/06/26 09:43:50;;;;;;;19.23;17.33;;;25.20;99.90;;;;;;4177533;28;20033;-75
2021/06/26 09:46:02;;;;;;;19.17;17.25;;;25.40;99.90;;;;;;4172235;28;20505;-75
2021/06/26 09:48:05;;;;;;;20.55;16.20;;;25.50;99.90;;;;;;4179551;28;20017;-75
2021/06/26 09:50:20;;;;;;;20.67;17.88;;;25.70;99.90;;;;;;4173770;28;20053;-76
2021/06/26 09:52:21;;;;;;;18.23;16.35;;;25.90;99.90;;;;;;4174545;28;20121;-75
2021/06/26 09:54:26;;;;;;;19.67;17.80;;;26.00;99.90;;;;;;4165831;28;20453;-76
2021/06/26 09:56:44;;;;;;;19.60;16.70;;;26.10;99.90;;;;;;4169702;28;20047;-78
2021/06/26 09:58:52;;;;;;;20.92;18.17;;;25.90;99.90;;;;;;4178058;28;20048;-77
2021/06/26 10:00:53;;;;;;;19.30;17.55;;;26.20;99.90;;;;;;4168850;28;20032;-77
2021/06/26 10:02:55;;;;;;;17.80;15.52;;;26.30;99.90;;;;;;4178794;28;20037;-79
2021/06/26 10:04:57;;;;;;;17.33;15.23;;;26.50;99.90;;;;;;4172886;28;20511;-78
2021/06/26 10:06:59;;;;;;;20.08;16.48;;;27.00;99.90;;;;;;4171415;28;20038;-79
2021/06/26 10:09:04;;;;;;;18.70;15.77;;;27.20;99.90;;;;;;4173276;28;20032;-77
2021/06/26 10:11:05;;;;;;;14.90;13.40;;;27.20;99.90;;;;;;4179048;28;20037;-78
2021/06/26 10:13:09;;;;;;;16.52;14.93;;;27.40;99.90;;;;;;4179200;28;20037;-78